createdAt,value
2023-07-16T00:00:40.199Z,2.80
2023-07-16T00:03:08.860Z,3.47
2023-07-16T00:05:39.748Z,2.05
2023-07-16T00:08:08.347Z,2.53
2023-07-16T00:10:39.574Z,2.13
2023-07-16T00:13:08.291Z,1.98
2023-07-16T00:15:36.875Z,1.95
2023-07-16T00:18:06.941Z,1.83
2023-07-16T00:20:35.585Z,2.08
2023-07-16T00:23:03.965Z,2.30
2023-07-16T00:25:32.657Z,2.55
2023-07-16T00:28:02.608Z,1.75
2023-07-16T00:30:31.002Z,2.03
2023-07-16T00:32:59.721Z,2.05
2023-07-16T00:35:28.436Z,2.20
2023-07-16T00:37:57.232Z,2.05
2023-07-16T00:40:25.936Z,2.28
2023-07-16T00:42:54.677Z,2.20
2023-07-16T00:45:24.777Z,1.92
2023-07-16T00:47:54.425Z,1.83
2023-07-16T00:50:23.642Z,1.80
2023-07-16T00:52:52.689Z,2.17
2023-07-16T00:55:21.522Z,1.85
2023-07-16T00:57:50.218Z,1.52
2023-07-16T01:00:18.772Z,1.83
2023-07-16T01:02:48.851Z,1.90
2023-07-16T01:05:17.725Z,2.42
2023-07-16T01:07:57.167Z,1.85
2023-07-16T01:10:26.824Z,1.90
2023-07-16T01:12:58.432Z,1.70
2023-07-16T01:15:27.200Z,2.00
2023-07-16T01:17:57.182Z,1.65
2023-07-16T01:20:26.852Z,1.55
2023-07-16T01:23:20.083Z,1.63
2023-07-16T01:26:21.950Z,1.90
2023-07-16T01:29:30.531Z,1.52
2023-07-16T01:32:03.797Z,1.98
2023-07-16T01:34:35.296Z,1.65
2023-07-16T01:37:05.010Z,1.65
2023-07-16T01:39:34.773Z,1.63
2023-07-16T01:42:03.838Z,1.63
2023-07-16T01:44:32.527Z,2.13
2023-07-16T01:47:10.065Z,1.30
2023-07-16T01:49:40.266Z,1.15
2023-07-16T01:52:10.047Z,1.55
2023-07-16T01:54:39.057Z,1.30
2023-07-16T01:57:07.938Z,1.40
2023-07-16T01:59:36.520Z,1.55
2023-07-16T02:02:07.781Z,1.55
2023-07-16T02:04:44.283Z,1.73
2023-07-16T02:07:13.508Z,1.25
2023-07-16T02:09:42.188Z,1.60
2023-07-16T02:12:10.768Z,1.55
2023-07-16T02:14:39.569Z,2.03
2023-07-16T02:17:09.679Z,1.58
2023-07-16T02:19:38.222Z,2.17
2023-07-16T02:22:07.194Z,1.90
2023-07-16T02:24:36.643Z,2.10
2023-07-16T02:27:05.694Z,1.38
2023-07-16T02:29:35.767Z,2.47
2023-07-16T02:32:04.476Z,1.67
2023-07-16T02:34:34.383Z,1.98
2023-07-16T02:37:04.286Z,2.20
2023-07-16T02:39:32.820Z,1.77
2023-07-16T02:42:01.411Z,1.40
2023-07-16T02:44:30.030Z,3.03
2023-07-16T02:46:58.668Z,1.27
2023-07-16T02:49:27.300Z,1.45
2023-07-16T02:51:57.289Z,1.55
2023-07-16T02:54:25.964Z,1.20
2023-07-16T02:56:54.620Z,1.58
2023-07-16T02:59:23.661Z,1.40
2023-07-16T03:01:53.419Z,1.55
2023-07-16T03:04:23.049Z,1.63
2023-07-16T03:06:51.695Z,1.60
2023-07-16T03:09:21.714Z,1.52
2023-07-16T03:11:50.320Z,1.65
2023-07-16T03:14:20.496Z,1.20
2023-07-16T03:16:49.216Z,1.15
2023-07-16T03:19:17.844Z,1.73
2023-07-16T03:21:47.114Z,1.60
2023-07-16T03:24:15.391Z,1.45
2023-07-16T03:26:45.311Z,1.10
2023-07-16T03:29:14.324Z,1.52
2023-07-16T03:31:42.889Z,1.33
2023-07-16T03:34:13.036Z,1.60
2023-07-16T03:36:41.761Z,1.15
2023-07-16T03:39:10.860Z,1.23
2023-07-16T03:41:39.447Z,1.50
2023-07-16T03:44:09.361Z,1.27
2023-07-16T03:46:39.174Z,1.65
2023-07-16T03:49:10.244Z,2.67
2023-07-16T03:51:39.000Z,1.70
2023-07-16T03:54:07.549Z,1.45
2023-07-16T03:56:36.266Z,1.50
2023-07-16T03:59:05.441Z,1.63
2023-07-16T04:01:35.468Z,1.33
2023-07-16T04:04:04.100Z,1.50
2023-07-16T04:06:32.694Z,1.35
2023-07-16T04:09:01.258Z,1.80
2023-07-16T04:11:29.851Z,1.40
2023-07-16T04:13:58.384Z,1.67
2023-07-16T04:16:27.045Z,1.85
2023-07-16T04:18:57.061Z,2.17
2023-07-16T04:21:25.666Z,1.27
2023-07-16T04:23:54.226Z,1.67
2023-07-16T04:26:22.851Z,1.70
2023-07-16T04:28:51.403Z,1.30
2023-07-16T04:31:19.691Z,1.67
2023-07-16T04:33:48.282Z,1.77
2023-07-16T04:36:18.618Z,1.55
2023-07-16T04:38:47.268Z,0.93
2023-07-16T04:41:15.858Z,1.25
2023-07-16T04:43:44.410Z,1.30
2023-07-16T04:46:13.249Z,1.20
2023-07-16T04:48:42.049Z,1.83
2023-07-16T04:51:10.558Z,1.38
2023-07-16T04:53:40.481Z,1.60
2023-07-16T04:56:15.012Z,1.73
2023-07-16T04:58:44.573Z,1.60
2023-07-16T05:01:13.412Z,1.67
2023-07-16T05:03:42.190Z,1.70
2023-07-16T05:06:11.154Z,1.60
2023-07-16T05:08:41.127Z,1.92
2023-07-16T05:11:09.716Z,1.60
2023-07-16T05:13:38.278Z,1.60
2023-07-16T05:16:07.258Z,1.30
2023-07-16T05:18:35.898Z,1.35
2023-07-16T05:21:04.514Z,1.40
2023-07-16T05:23:33.063Z,1.60
2023-07-16T05:26:03.033Z,1.88
2023-07-16T05:28:31.309Z,2.03
2023-07-16T05:31:05.732Z,1.77
2023-07-16T05:33:34.440Z,1.42
2023-07-16T05:36:03.016Z,1.52
2023-07-16T05:38:31.330Z,2.85
2023-07-16T05:41:04.679Z,1.73
2023-07-16T05:43:33.966Z,1.65
2023-07-16T05:46:02.531Z,1.73
2023-07-16T05:48:31.121Z,1.50
2023-07-16T05:50:59.809Z,1.80
2023-07-16T05:53:28.344Z,1.30
2023-07-16T05:55:56.907Z,1.75
2023-07-16T05:58:26.824Z,1.63
2023-07-16T06:00:55.387Z,1.52
2023-07-16T06:03:23.930Z,1.60
2023-07-16T06:05:52.537Z,1.63
2023-07-16T06:08:21.351Z,1.25
2023-07-16T06:10:50.038Z,1.45
2023-07-16T06:13:18.592Z,1.48
2023-07-16T06:15:48.835Z,1.23
2023-07-16T06:18:18.476Z,2.35
2023-07-16T06:20:48.549Z,1.73
2023-07-16T06:23:17.890Z,1.33
2023-07-16T06:25:47.984Z,1.83
2023-07-16T06:28:17.258Z,1.98
2023-07-16T06:30:47.137Z,1.90
2023-07-16T06:33:15.727Z,1.98
2023-07-16T06:35:47.719Z,2.40
2023-07-16T06:38:16.752Z,2.50
2023-07-16T06:40:49.962Z,1.95
2023-07-16T06:43:19.062Z,2.13
2023-07-16T06:45:50.838Z,2.08
2023-07-16T06:48:19.714Z,1.83
2023-07-16T06:50:48.444Z,1.92
2023-07-16T06:53:17.105Z,2.25
2023-07-16T06:55:45.745Z,2.05
2023-07-16T06:58:15.921Z,1.80
2023-07-16T07:00:44.597Z,2.80
2023-07-16T07:03:14.526Z,1.90
2023-07-16T07:05:44.031Z,2.05
2023-07-16T07:08:12.610Z,2.30
2023-07-16T07:10:41.937Z,2.75
2023-07-16T07:13:10.471Z,2.05
2023-07-16T07:15:39.088Z,2.40
2023-07-16T07:18:07.885Z,2.28
2023-07-16T07:20:37.977Z,2.90
2023-07-16T07:23:06.827Z,3.05
2023-07-16T07:25:35.450Z,4.60
2023-07-16T07:28:05.115Z,3.47
2023-07-16T07:30:33.710Z,2.70
2023-07-16T07:33:02.468Z,2.72
2023-07-16T07:35:30.763Z,4.32
2023-07-16T07:38:01.180Z,2.10
2023-07-16T07:40:30.266Z,2.10
2023-07-16T07:42:59.436Z,2.72
2023-07-16T07:45:28.667Z,2.25
2023-07-16T07:47:57.480Z,1.92
2023-07-16T07:50:26.936Z,1.90
2023-07-16T07:52:55.294Z,2.13
2023-07-16T07:55:24.934Z,1.90
2023-07-16T07:57:54.095Z,2.22
2023-07-16T08:00:23.496Z,1.73
2023-07-16T08:02:52.623Z,2.25
2023-07-16T08:05:21.399Z,1.88
2023-07-16T08:07:50.040Z,2.45
2023-07-16T08:10:18.880Z,1.65
2023-07-16T08:12:48.985Z,2.00
2023-07-16T08:15:17.664Z,1.95
2023-07-16T08:17:47.499Z,2.88
2023-07-16T08:20:16.157Z,2.65
2023-07-16T08:22:44.754Z,1.55
2023-07-16T08:25:13.309Z,2.17
2023-07-16T08:27:41.838Z,2.85
2023-07-16T08:30:12.530Z,2.03
2023-07-16T08:32:41.079Z,2.17
2023-07-16T08:35:13.250Z,2.05
2023-07-16T08:37:41.888Z,1.58
2023-07-16T08:40:12.105Z,2.28
2023-07-16T08:42:41.412Z,2.00
2023-07-16T08:45:14.320Z,2.17
2023-07-16T08:47:42.961Z,2.45
2023-07-16T08:50:12.773Z,1.85
2023-07-16T08:52:42.081Z,3.30
2023-07-16T08:55:11.028Z,3.08
2023-07-16T08:57:41.329Z,2.22
2023-07-16T09:00:11.432Z,2.00
2023-07-16T09:02:41.452Z,2.03
2023-07-16T09:05:20.771Z,2.25
2023-07-16T09:07:56.967Z,1.70
2023-07-16T09:10:25.618Z,2.42
2023-07-16T09:12:54.472Z,1.90
2023-07-16T09:15:23.045Z,1.40
2023-07-16T09:17:56.130Z,1.63
2023-07-16T09:20:25.558Z,1.85
2023-07-16T09:22:57.262Z,1.50
2023-07-16T09:25:28.980Z,2.03
2023-07-16T09:27:57.652Z,1.73
2023-07-16T09:30:26.252Z,1.58
2023-07-16T09:32:56.296Z,1.98
2023-07-16T09:35:24.938Z,1.85
2023-07-16T09:37:53.507Z,2.08
2023-07-16T09:40:22.225Z,1.65
2023-07-16T09:42:51.603Z,1.83
2023-07-16T09:45:21.303Z,1.40
2023-07-16T09:47:50.263Z,1.52
2023-07-16T09:50:20.723Z,2.13
2023-07-16T09:52:50.193Z,1.70
2023-07-16T09:55:20.369Z,1.77
2023-07-16T09:57:49.575Z,1.60
2023-07-16T10:00:21.670Z,1.38
2023-07-16T10:02:50.537Z,1.88
2023-07-16T10:05:25.653Z,2.33
2023-07-16T10:07:55.784Z,1.40
2023-07-16T10:10:27.449Z,1.80
2023-07-16T10:13:00.643Z,1.40
2023-07-16T10:15:30.345Z,1.27
2023-07-16T10:17:59.302Z,1.50
2023-07-16T10:20:33.726Z,1.20
2023-07-16T10:23:14.333Z,1.27
2023-07-16T10:25:59.495Z,1.67
2023-07-16T10:28:28.200Z,2.08
2023-07-16T10:30:56.999Z,1.70
2023-07-16T10:33:25.731Z,1.17
2023-07-16T10:35:55.448Z,1.42
2023-07-16T10:38:24.082Z,1.25
2023-07-16T10:40:52.914Z,1.30
2023-07-16T10:43:21.993Z,1.67
2023-07-16T10:45:52.573Z,1.48
2023-07-16T10:48:27.755Z,1.48
2023-07-16T10:50:57.663Z,1.33
2023-07-16T10:53:26.259Z,1.55
2023-07-16T10:55:56.118Z,1.65
2023-07-16T10:58:25.085Z,1.52
2023-07-16T11:00:53.703Z,1.52
2023-07-16T11:03:22.398Z,1.50
2023-07-16T11:05:50.896Z,1.42
2023-07-16T11:08:27.255Z,1.73
2023-07-16T11:10:58.698Z,1.48
2023-07-16T11:13:29.048Z,1.55
2023-07-16T11:15:57.703Z,1.55
2023-07-16T11:18:26.427Z,1.48
2023-07-16T11:20:55.359Z,1.50
2023-07-16T11:23:25.003Z,1.30
2023-07-16T11:25:54.919Z,1.20
2023-07-16T11:28:23.137Z,1.73
2023-07-16T11:30:51.579Z,1.35
2023-07-16T11:33:20.478Z,1.25
2023-07-16T11:35:50.762Z,1.08
2023-07-16T11:38:21.210Z,1.33
2023-07-16T11:40:49.913Z,1.42
2023-07-16T11:43:22.289Z,1.33
2023-07-16T11:45:50.927Z,1.35
2023-07-16T11:48:19.501Z,1.10
2023-07-16T11:50:47.998Z,1.55
2023-07-16T11:53:18.919Z,1.05
2023-07-16T11:55:47.242Z,1.70
2023-07-16T11:58:15.771Z,1.63
2023-07-16T12:00:45.441Z,1.70
2023-07-16T12:03:14.165Z,1.17
2023-07-16T12:05:52.336Z,1.63
2023-07-16T12:08:22.126Z,1.17
2023-07-16T12:10:50.733Z,1.60
2023-07-16T12:13:19.392Z,1.98
2023-07-16T12:15:48.984Z,1.50
2023-07-16T12:18:17.344Z,1.88
2023-07-16T12:20:45.941Z,1.40
2023-07-16T12:23:14.532Z,2.05
2023-07-16T12:25:44.433Z,1.52
2023-07-16T12:28:13.432Z,1.55
2023-07-16T12:30:42.072Z,1.55
2023-07-16T12:33:12.089Z,1.67
2023-07-16T12:35:40.646Z,1.60
2023-07-16T12:38:09.487Z,1.63
2023-07-16T12:40:41.690Z,1.63
2023-07-16T12:43:10.367Z,1.63
2023-07-16T12:45:38.893Z,1.20
2023-07-16T12:48:08.013Z,1.45
2023-07-16T12:50:37.746Z,1.75
2023-07-16T12:53:06.322Z,1.63
2023-07-16T12:55:35.093Z,1.40
2023-07-16T12:58:03.903Z,1.33
2023-07-16T13:00:32.604Z,1.83
2023-07-16T13:03:01.181Z,1.75
2023-07-16T13:05:30.000Z,2.10
2023-07-16T13:07:59.572Z,1.88
2023-07-16T13:10:28.273Z,2.20
2023-07-16T13:12:56.518Z,1.77
2023-07-16T13:15:25.137Z,2.25
2023-07-16T13:17:53.464Z,1.88
2023-07-16T13:20:22.918Z,1.67
2023-07-16T13:22:51.392Z,2.20
2023-07-16T13:25:21.437Z,1.92
2023-07-16T13:27:50.176Z,1.90
2023-07-16T13:30:18.847Z,1.77
2023-07-16T13:32:47.507Z,1.92
2023-07-16T13:35:15.836Z,1.85
2023-07-16T13:37:44.481Z,1.75
2023-07-16T13:40:14.253Z,1.65
2023-07-16T13:42:43.872Z,1.73
2023-07-16T13:45:12.515Z,1.98
2023-07-16T13:47:41.165Z,2.15
2023-07-16T13:50:10.801Z,1.98
2023-07-16T13:52:39.770Z,2.10
2023-07-16T13:55:08.819Z,1.95
2023-07-16T13:57:37.396Z,2.20
2023-07-16T14:00:10.868Z,1.92
2023-07-16T14:02:39.450Z,1.87
2023-07-16T14:05:08.661Z,2.30
2023-07-16T14:07:37.262Z,1.83
2023-07-16T14:10:06.590Z,2.80
2023-07-16T14:12:35.580Z,1.98
2023-07-16T14:15:04.744Z,2.05
2023-07-16T14:17:34.752Z,1.95
2023-07-16T14:20:04.705Z,1.58
2023-07-16T14:22:33.237Z,1.90
2023-07-16T14:25:01.806Z,2.20
2023-07-16T14:27:30.362Z,2.42
2023-07-16T14:30:06.215Z,2.35
2023-07-16T14:32:37.534Z,1.58
2023-07-16T14:35:10.919Z,1.83
2023-07-16T14:37:44.629Z,2.08
2023-07-16T14:40:13.942Z,1.50
2023-07-16T14:42:43.902Z,1.45
2023-07-16T14:45:12.780Z,2.53
2023-07-16T14:47:42.832Z,1.60
2023-07-16T14:50:12.021Z,1.67
2023-07-16T14:52:41.222Z,2.55
2023-07-16T14:55:10.432Z,1.83
2023-07-16T14:57:39.003Z,2.20
2023-07-16T15:00:10.008Z,2.15
2023-07-16T15:02:38.415Z,2.22
2023-07-16T15:05:09.986Z,1.80
2023-07-16T15:07:39.079Z,2.58
2023-07-16T15:10:09.100Z,1.73
2023-07-16T15:12:37.853Z,2.00
2023-07-16T15:15:07.068Z,2.10
2023-07-16T15:17:35.820Z,2.20
2023-07-16T15:20:05.560Z,2.42
2023-07-16T15:22:35.358Z,2.30
2023-07-16T15:25:05.342Z,2.13
2023-07-16T15:27:33.974Z,2.13
2023-07-16T15:30:03.443Z,1.90
2023-07-16T15:32:32.039Z,1.85
2023-07-16T15:35:00.306Z,1.83
2023-07-16T15:37:28.954Z,1.92
2023-07-16T15:39:59.989Z,2.58
2023-07-16T15:42:28.887Z,2.03
2023-07-16T15:44:58.603Z,2.45
2023-07-16T15:47:27.510Z,2.45
2023-07-16T15:49:56.134Z,1.90
2023-07-16T15:52:26.427Z,2.15
2023-07-16T15:55:04.930Z,2.15
2023-07-16T15:57:33.531Z,3.03
2023-07-16T16:00:02.070Z,2.30
2023-07-16T16:02:40.643Z,2.00
2023-07-16T16:05:09.988Z,2.40
2023-07-16T16:07:38.682Z,2.10
2023-07-16T16:10:10.606Z,2.53
2023-07-16T16:12:39.303Z,2.08
2023-07-16T16:15:08.831Z,2.35
2023-07-16T16:17:37.622Z,2.60
2023-07-16T16:20:08.841Z,2.50
2023-07-16T16:22:37.486Z,2.28
2023-07-16T16:25:07.669Z,1.98
2023-07-16T16:27:38.210Z,2.05
2023-07-16T16:30:08.323Z,2.50
2023-07-16T16:32:36.900Z,2.00
2023-07-16T16:35:06.521Z,2.30
2023-07-16T16:37:35.060Z,1.98
2023-07-16T16:40:07.111Z,2.47
2023-07-16T16:42:37.080Z,1.92
2023-07-16T16:45:06.280Z,2.00
2023-07-16T16:47:35.122Z,2.10
2023-07-16T16:50:04.042Z,1.88
2023-07-16T16:52:33.638Z,1.92
2023-07-16T16:55:02.702Z,2.08
2023-07-16T16:57:32.203Z,2.50
2023-07-16T17:00:02.357Z,2.97
2023-07-16T17:02:30.931Z,2.05
2023-07-16T17:04:59.561Z,2.13
2023-07-16T17:07:28.457Z,2.10
2023-07-16T17:09:57.018Z,2.53
2023-07-16T17:12:25.625Z,2.00
2023-07-16T17:14:54.955Z,1.95
2023-07-16T17:17:25.235Z,2.05
2023-07-16T17:19:57.566Z,1.85
2023-07-16T17:22:27.798Z,2.42
2023-07-16T17:24:56.540Z,2.08
2023-07-16T17:27:25.125Z,2.50
2023-07-16T17:29:53.945Z,2.08
2023-07-16T17:32:24.094Z,1.95
2023-07-16T17:34:52.765Z,2.58
2023-07-16T17:37:21.359Z,3.05
2023-07-16T17:39:51.028Z,2.63
2023-07-16T17:42:21.314Z,2.33
2023-07-16T17:44:51.730Z,2.70
2023-07-16T17:47:20.279Z,2.50
2023-07-16T17:49:50.209Z,2.70
2023-07-16T17:52:18.753Z,2.67
2023-07-16T17:54:47.324Z,2.78
2023-07-16T17:57:15.922Z,2.63
2023-07-16T17:59:44.472Z,2.63
2023-07-16T18:02:13.721Z,2.67
2023-07-16T18:04:43.322Z,2.28
2023-07-16T18:07:13.528Z,2.35
2023-07-16T18:09:42.141Z,2.85
2023-07-16T18:12:10.952Z,2.70
2023-07-16T18:14:39.294Z,2.78
2023-07-16T18:17:07.935Z,2.60
2023-07-16T18:19:36.804Z,2.60
2023-07-16T18:22:24.363Z,2.55
2023-07-16T18:24:55.905Z,3.05
2023-07-16T18:27:24.467Z,2.45
2023-07-16T18:29:53.525Z,1.90
2023-07-16T18:32:22.425Z,2.35
2023-07-16T18:34:53.720Z,2.55
2023-07-16T18:37:23.460Z,2.67
2023-07-16T18:39:54.303Z,2.30
2023-07-16T18:42:27.460Z,2.05
2023-07-16T18:45:00.023Z,2.15
2023-07-16T18:47:29.823Z,2.35
2023-07-16T18:50:00.846Z,3.50
2023-07-16T18:52:29.604Z,2.40
2023-07-16T18:54:58.230Z,2.42
2023-07-16T18:57:29.349Z,2.95
2023-07-16T18:59:58.079Z,2.63
2023-07-16T19:02:26.666Z,2.85
2023-07-16T19:04:55.511Z,2.72
2023-07-16T19:07:26.241Z,3.13
2023-07-16T19:09:54.857Z,2.88
2023-07-16T19:12:25.005Z,3.05
2023-07-16T19:14:58.258Z,2.22
2023-07-16T19:17:27.565Z,2.55
2023-07-16T19:19:56.717Z,2.45
2023-07-16T19:22:27.500Z,2.83
2023-07-16T19:24:56.384Z,2.45
2023-07-16T19:27:24.985Z,2.30
2023-07-16T19:29:55.164Z,2.25
2023-07-16T19:32:23.829Z,3.78
2023-07-16T19:34:52.858Z,2.60
2023-07-16T19:37:21.710Z,2.63
2023-07-16T19:39:50.280Z,2.38
2023-07-16T19:42:19.318Z,2.95
2023-07-16T19:44:47.929Z,2.58
2023-07-16T19:47:17.929Z,2.92
2023-07-16T19:49:47.121Z,3.22
2023-07-16T19:52:15.900Z,3.38
2023-07-16T19:54:44.614Z,3.55
2023-07-16T19:57:13.372Z,3.03
2023-07-16T19:59:42.075Z,3.05
2023-07-16T20:02:11.135Z,3.65
2023-07-16T20:04:41.041Z,2.75
2023-07-16T20:07:11.759Z,3.15
2023-07-16T20:09:43.724Z,2.78
2023-07-16T20:12:12.845Z,3.85
2023-07-16T20:14:41.412Z,3.58
2023-07-16T20:17:10.227Z,3.10
2023-07-16T20:19:40.468Z,2.53
2023-07-16T20:22:09.077Z,2.67
2023-07-16T20:24:37.608Z,2.20
2023-07-16T20:27:06.612Z,2.63
2023-07-16T20:29:35.292Z,2.50
2023-07-16T20:32:05.377Z,2.40
2023-07-16T20:34:34.102Z,3.00
2023-07-16T20:37:04.781Z,3.97
2023-07-16T20:39:33.325Z,3.10
2023-07-16T20:42:01.924Z,3.80
2023-07-16T20:44:30.480Z,3.80
2023-07-16T20:46:59.144Z,3.40
2023-07-16T20:49:28.697Z,3.80
2023-07-16T20:51:57.246Z,3.42
2023-07-16T20:54:28.148Z,3.63
2023-07-16T20:56:59.152Z,2.95
2023-07-16T20:59:27.770Z,2.75
2023-07-16T21:01:56.341Z,3.58
2023-07-16T21:04:45.829Z,3.38
2023-07-16T21:07:14.441Z,2.95
2023-07-16T21:09:44.343Z,2.88
2023-07-16T21:12:12.994Z,2.80
2023-07-16T21:14:41.554Z,2.58
2023-07-16T21:17:10.244Z,2.95
2023-07-16T21:19:38.865Z,2.72
2023-07-16T21:22:08.356Z,3.03
2023-07-16T21:24:37.952Z,3.92
2023-07-16T21:27:09.405Z,2.90
2023-07-16T21:29:38.050Z,3.15
2023-07-16T21:32:07.494Z,3.05
2023-07-16T21:34:36.103Z,2.83
2023-07-16T21:37:05.124Z,2.20
2023-07-16T21:39:33.735Z,3.25
2023-07-16T21:42:02.326Z,2.70
2023-07-16T21:44:32.317Z,2.70
2023-07-16T21:47:01.142Z,2.60
2023-07-16T21:49:30.048Z,2.90
2023-07-16T21:52:00.628Z,2.83
2023-07-16T21:54:29.244Z,2.55
2023-07-16T21:56:57.846Z,2.20
2023-07-16T21:59:26.580Z,3.00
2023-07-16T22:01:56.658Z,2.80
2023-07-16T22:04:25.550Z,2.35
2023-07-16T22:06:54.128Z,2.58
2023-07-16T22:09:22.832Z,2.58
2023-07-16T22:11:51.612Z,3.08
2023-07-16T22:14:20.453Z,2.45
2023-07-16T22:16:49.116Z,2.30
2023-07-16T22:19:31.651Z,2.38
2023-07-16T22:22:02.131Z,2.88
2023-07-16T22:24:31.210Z,2.65
2023-07-16T22:26:59.783Z,2.85
2023-07-16T22:29:28.487Z,3.45
2023-07-16T22:31:57.133Z,3.30
2023-07-16T22:34:28.239Z,3.08
2023-07-16T22:36:56.806Z,2.95
2023-07-16T22:39:25.906Z,3.08
2023-07-16T22:41:54.556Z,2.85
2023-07-16T22:44:23.730Z,3.28
2023-07-16T22:46:52.495Z,3.28
2023-07-16T22:49:21.116Z,3.65
2023-07-16T22:51:51.077Z,2.95
2023-07-16T22:54:19.645Z,2.88
2023-07-16T22:56:48.260Z,3.05
2023-07-16T22:59:16.837Z,3.05
2023-07-16T23:01:45.376Z,2.67
2023-07-16T23:04:14.049Z,2.83
2023-07-16T23:06:42.634Z,3.15
2023-07-16T23:09:14.471Z,2.63
2023-07-16T23:11:43.081Z,2.95
2023-07-16T23:14:11.615Z,3.00
2023-07-16T23:16:40.220Z,2.95
2023-07-16T23:19:08.784Z,2.83
2023-07-16T23:21:37.376Z,2.63
2023-07-16T23:24:06.636Z,2.50
2023-07-16T23:26:36.600Z,3.30
2023-07-16T23:29:05.179Z,2.40
2023-07-16T23:31:33.983Z,2.90
2023-07-16T23:34:02.649Z,3.13
2023-07-16T23:36:31.190Z,2.67
2023-07-16T23:38:59.748Z,3.47
2023-07-16T23:41:28.280Z,3.10
2023-07-16T23:43:58.134Z,2.83
2023-07-16T23:46:26.725Z,2.78
2023-07-16T23:48:55.281Z,3.28
2023-07-16T23:51:23.914Z,3.13
2023-07-16T23:53:52.491Z,3.30
2023-07-16T23:56:21.026Z,3.20
2023-07-16T23:58:51.068Z,3.13
